sensor_id;sensor_type;location;lat;lon;timestamp;P1;durP1;ratioP1;P2;durP2;ratioP2
76801;SDS011;66403;50.832;10.950;2023-03-01T00:01:01;9.63;;;6.35;;
76801;SDS011;66403;50.832;10.950;2023-03-01T00:06:06;13.85;;;8.02;;
76801;SDS011;66403;50.832;10.950;2023-03-01T00:11:08;13.48;;;6.45;;
76801;SDS011;66403;50.832;10.950;2023-03-01T00:16:18;14.00;;;7.75;;
76801;SDS011;66403;50.832;10.950;2023-03-01T00:21:20;8.73;;;4.97;;
76801;SDS011;66403;50.832;10.950;2023-03-01T00:26:22;12.82;;;6.10;;
76801;SDS011;66403;50.832;10.950;2023-03-01T00:31:24;11.05;;;7.05;;
76801;SDS011;66403;50.832;10.950;2023-03-01T00:36:31;12.05;;;6.70;;
76801;SDS011;66403;50.832;10.950;2023-03-01T00:41:33;11.32;;;6.97;;
76801;SDS011;66403;50.832;10.950;2023-03-01T00:46:34;12.82;;;6.03;;
76801;SDS011;66403;50.832;10.950;2023-03-01T00:51:35;13.63;;;6.35;;
76801;SDS011;66403;50.832;10.950;2023-03-01T00:56:35;14.77;;;7.07;;
76801;SDS011;66403;50.832;10.950;2023-03-01T01:01:36;13.57;;;7.40;;
76801;SDS011;66403;50.832;10.950;2023-03-01T01:06:38;10.93;;;7.00;;
76801;SDS011;66403;50.832;10.950;2023-03-01T01:11:43;13.65;;;6.35;;
76801;SDS011;66403;50.832;10.950;2023-03-01T01:16:47;11.45;;;6.28;;
76801;SDS011;66403;50.832;10.950;2023-03-01T01:21:48;10.15;;;6.43;;
76801;SDS011;66403;50.832;10.950;2023-03-01T01:26:49;13.98;;;7.47;;
76801;SDS011;66403;50.832;10.950;2023-03-01T01:31:49;12.55;;;6.47;;
76801;SDS011;66403;50.832;10.950;2023-03-01T01:36:51;11.68;;;6.07;;
76801;SDS011;66403;50.832;10.950;2023-03-01T01:41:53;15.45;;;6.50;;
76801;SDS011;66403;50.832;10.950;2023-03-01T01:47:01;14.77;;;6.50;;
76801;SDS011;66403;50.832;10.950;2023-03-01T01:57:07;12.25;;;6.25;;
76801;SDS011;66403;50.832;10.950;2023-03-01T02:02:12;9.27;;;6.72;;
76801;SDS011;66403;50.832;10.950;2023-03-01T02:07:17;9.38;;;4.35;;
76801;SDS011;66403;50.832;10.950;2023-03-01T02:17:21;10.82;;;4.95;;
76801;SDS011;66403;50.832;10.950;2023-03-01T02:22:28;13.05;;;6.68;;
76801;SDS011;66403;50.832;10.950;2023-03-01T02:27:36;11.98;;;4.78;;
76801;SDS011;66403;50.832;10.950;2023-03-01T02:32:40;13.15;;;6.05;;
76801;SDS011;66403;50.832;10.950;2023-03-01T02:37:41;11.18;;;6.25;;
76801;SDS011;66403;50.832;10.950;2023-03-01T02:42:45;11.43;;;6.68;;
76801;SDS011;66403;50.832;10.950;2023-03-01T02:47:50;9.27;;;4.88;;
76801;SDS011;66403;50.832;10.950;2023-03-01T02:58:13;11.15;;;5.70;;
76801;SDS011;66403;50.832;10.950;2023-03-01T03:03:14;15.90;;;6.30;;
76801;SDS011;66403;50.832;10.950;2023-03-01T03:08:16;9.88;;;5.53;;
76801;SDS011;66403;50.832;10.950;2023-03-01T03:13:25;10.48;;;5.32;;
76801;SDS011;66403;50.832;10.950;2023-03-01T03:18:28;14.55;;;6.88;;
76801;SDS011;66403;50.832;10.950;2023-03-01T03:23:29;17.10;;;8.02;;
76801;SDS011;66403;50.832;10.950;2023-03-01T03:28:30;11.73;;;4.78;;
76801;SDS011;66403;50.832;10.950;2023-03-01T03:33:31;19.38;;;5.70;;
76801;SDS011;66403;50.832;10.950;2023-03-01T03:38:32;12.63;;;5.40;;
76801;SDS011;66403;50.832;10.950;2023-03-01T03:43:33;9.45;;;5.18;;
76801;SDS011;66403;50.832;10.950;2023-03-01T03:48:35;9.65;;;5.07;;
76801;SDS011;66403;50.832;10.950;2023-03-01T03:53:37;8.95;;;5.38;;
76801;SDS011;66403;50.832;10.950;2023-03-01T03:58:37;13.73;;;6.43;;
76801;SDS011;66403;50.832;10.950;2023-03-01T04:03:38;6.63;;;5.22;;
76801;SDS011;66403;50.832;10.950;2023-03-01T04:08:38;13.68;;;5.60;;
76801;SDS011;66403;50.832;10.950;2023-03-01T04:13:39;9.18;;;5.55;;
76801;SDS011;66403;50.832;10.950;2023-03-01T04:18:39;12.43;;;7.10;;
76801;SDS011;66403;50.832;10.950;2023-03-01T04:23:40;10.30;;;5.78;;
76801;SDS011;66403;50.832;10.950;2023-03-01T04:28:41;11.45;;;5.53;;
76801;SDS011;66403;50.832;10.950;2023-03-01T04:33:54;11.15;;;6.45;;
76801;SDS011;66403;50.832;10.950;2023-03-01T04:38:55;12.05;;;6.55;;
76801;SDS011;66403;50.832;10.950;2023-03-01T04:43:56;8.95;;;5.38;;
76801;SDS011;66403;50.832;10.950;2023-03-01T04:48:56;7.68;;;5.00;;
76801;SDS011;66403;50.832;10.950;2023-03-01T04:53:57;12.63;;;7.40;;
76801;SDS011;66403;50.832;10.950;2023-03-01T04:58:57;8.65;;;5.90;;
76801;SDS011;66403;50.832;10.950;2023-03-01T05:03:58;12.10;;;6.30;;
76801;SDS011;66403;50.832;10.950;2023-03-01T05:09:02;12.13;;;5.75;;
76801;SDS011;66403;50.832;10.950;2023-03-01T05:14:03;11.45;;;6.30;;
76801;SDS011;66403;50.832;10.950;2023-03-01T05:19:05;9.80;;;6.05;;
76801;SDS011;66403;50.832;10.950;2023-03-01T05:24:11;13.30;;;5.45;;
76801;SDS011;66403;50.832;10.950;2023-03-01T05:29:11;13.90;;;7.28;;
76801;SDS011;66403;50.832;10.950;2023-03-01T05:34:12;10.02;;;4.68;;
76801;SDS011;66403;50.832;10.950;2023-03-01T05:39:12;12.15;;;6.18;;
76801;SDS011;66403;50.832;10.950;2023-03-01T05:44:13;12.57;;;7.13;;
76801;SDS011;66403;50.832;10.950;2023-03-01T05:49:13;15.23;;;7.18;;
76801;SDS011;66403;50.832;10.950;2023-03-01T05:54:14;9.70;;;5.63;;
76801;SDS011;66403;50.832;10.950;2023-03-01T05:59:14;13.40;;;5.78;;
76801;SDS011;66403;50.832;10.950;2023-03-01T06:04:16;12.13;;;6.22;;
76801;SDS011;66403;50.832;10.950;2023-03-01T06:09:16;8.57;;;4.82;;
76801;SDS011;66403;50.832;10.950;2023-03-01T06:14:17;11.05;;;5.55;;
76801;SDS011;66403;50.832;10.950;2023-03-01T06:19:17;8.43;;;5.43;;
76801;SDS011;66403;50.832;10.950;2023-03-01T06:24:18;8.43;;;6.30;;
76801;SDS011;66403;50.832;10.950;2023-03-01T06:29:18;12.00;;;7.38;;
76801;SDS011;66403;50.832;10.950;2023-03-01T06:34:19;10.63;;;6.45;;
76801;SDS011;66403;50.832;10.950;2023-03-01T06:39:21;11.75;;;6.35;;
76801;SDS011;66403;50.832;10.950;2023-03-01T06:44:22;15.10;;;7.55;;
76801;SDS011;66403;50.832;10.950;2023-03-01T06:49:22;12.77;;;6.80;;
76801;SDS011;66403;50.832;10.950;2023-03-01T06:54:23;11.80;;;6.97;;
76801;SDS011;66403;50.832;10.950;2023-03-01T06:59:23;11.60;;;5.50;;
76801;SDS011;66403;50.832;10.950;2023-03-01T07:04:23;13.75;;;6.07;;
76801;SDS011;66403;50.832;10.950;2023-03-01T07:09:24;13.32;;;6.80;;
76801;SDS011;66403;50.832;10.950;2023-03-01T07:14:24;13.48;;;6.85;;
76801;SDS011;66403;50.832;10.950;2023-03-01T07:19:25;16.38;;;7.70;;
76801;SDS011;66403;50.832;10.950;2023-03-01T07:24:26;12.43;;;6.60;;
76801;SDS011;66403;50.832;10.950;2023-03-01T07:29:26;15.57;;;7.55;;
76801;SDS011;66403;50.832;10.950;2023-03-01T07:34:28;11.13;;;7.03;;
76801;SDS011;66403;50.832;10.950;2023-03-01T07:39:29;10.35;;;6.68;;
76801;SDS011;66403;50.832;10.950;2023-03-01T07:44:29;12.02;;;7.95;;
76801;SDS011;66403;50.832;10.950;2023-03-01T07:49:30;17.00;;;9.90;;
76801;SDS011;66403;50.832;10.950;2023-03-01T07:54:30;11.93;;;7.60;;
76801;SDS011;66403;50.832;10.950;2023-03-01T07:59:30;18.60;;;10.63;;
76801;SDS011;66403;50.832;10.950;2023-03-01T08:04:32;15.60;;;9.05;;
76801;SDS011;66403;50.832;10.950;2023-03-01T08:09:36;13.82;;;8.35;;
76801;SDS011;66403;50.832;10.950;2023-03-01T08:14:37;16.00;;;9.80;;
76801;SDS011;66403;50.832;10.950;2023-03-01T08:19:37;14.75;;;9.82;;
76801;SDS011;66403;50.832;10.950;2023-03-01T08:24:38;13.30;;;8.55;;
76801;SDS011;66403;50.832;10.950;2023-03-01T08:29:38;16.80;;;9.15;;
76801;SDS011;66403;50.832;10.950;2023-03-01T08:34:39;16.42;;;10.30;;
76801;SDS011;66403;50.832;10.950;2023-03-01T08:39:39;15.88;;;10.75;;
76801;SDS011;66403;50.832;10.950;2023-03-01T08:44:39;16.70;;;9.88;;
76801;SDS011;66403;50.832;10.950;2023-03-01T08:49:40;15.60;;;11.13;;
76801;SDS011;66403;50.832;10.950;2023-03-01T08:54:40;15.35;;;9.93;;
76801;SDS011;66403;50.832;10.950;2023-03-01T08:59:41;17.00;;;10.93;;
76801;SDS011;66403;50.832;10.950;2023-03-01T09:04:41;17.23;;;10.52;;
76801;SDS011;66403;50.832;10.950;2023-03-01T09:09:42;14.63;;;10.80;;
76801;SDS011;66403;50.832;10.950;2023-03-01T09:14:42;20.95;;;12.73;;
76801;SDS011;66403;50.832;10.950;2023-03-01T09:19:43;13.82;;;10.07;;
76801;SDS011;66403;50.832;10.950;2023-03-01T09:24:43;16.05;;;10.00;;
76801;SDS011;66403;50.832;10.950;2023-03-01T09:29:44;16.27;;;11.00;;
76801;SDS011;66403;50.832;10.950;2023-03-01T09:34:44;17.63;;;12.00;;
76801;SDS011;66403;50.832;10.950;2023-03-01T09:40:04;14.73;;;10.32;;
76801;SDS011;66403;50.832;10.950;2023-03-01T09:45:10;15.32;;;10.40;;
76801;SDS011;66403;50.832;10.950;2023-03-01T09:50:16;17.08;;;11.02;;
76801;SDS011;66403;50.832;10.950;2023-03-01T09:55:20;16.88;;;10.65;;
76801;SDS011;66403;50.832;10.950;2023-03-01T10:11:05;16.15;;;11.40;;
76801;SDS011;66403;50.832;10.950;2023-03-01T10:16:34;17.30;;;10.70;;
76801;SDS011;66403;50.832;10.950;2023-03-01T10:21:41;13.65;;;9.57;;
76801;SDS011;66403;50.832;10.950;2023-03-01T10:31:49;14.52;;;9.27;;
76801;SDS011;66403;50.832;10.950;2023-03-01T10:36:51;12.13;;;8.30;;
76801;SDS011;66403;50.832;10.950;2023-03-01T10:47:00;12.38;;;8.57;;
76801;SDS011;66403;50.832;10.950;2023-03-01T10:52:11;13.35;;;8.70;;
76801;SDS011;66403;50.832;10.950;2023-03-01T10:57:24;12.82;;;9.25;;
76801;SDS011;66403;50.832;10.950;2023-03-01T11:02:29;14.70;;;8.80;;
76801;SDS011;66403;50.832;10.950;2023-03-01T11:07:32;12.50;;;9.00;;
76801;SDS011;66403;50.832;10.950;2023-03-01T11:12:51;13.52;;;8.60;;
76801;SDS011;66403;50.832;10.950;2023-03-01T11:17:52;11.10;;;9.40;;
76801;SDS011;66403;50.832;10.950;2023-03-01T11:22:54;13.25;;;10.80;;
76801;SDS011;66403;50.832;10.950;2023-03-01T11:27:57;13.20;;;9.98;;
76801;SDS011;66403;50.832;10.950;2023-03-01T11:38:19;15.23;;;12.13;;
76801;SDS011;66403;50.832;10.950;2023-03-01T11:49:19;16.98;;;12.45;;
76801;SDS011;66403;50.832;10.950;2023-03-01T12:00:02;13.20;;;10.27;;
76801;SDS011;66403;50.832;10.950;2023-03-01T12:05:16;12.75;;;10.27;;
76801;SDS011;66403;50.832;10.950;2023-03-01T12:26:13;11.23;;;9.05;;
76801;SDS011;66403;50.832;10.950;2023-03-01T12:31:44;15.15;;;10.57;;
76801;SDS011;66403;50.832;10.950;2023-03-01T12:42:21;12.70;;;9.25;;
76801;SDS011;66403;50.832;10.950;2023-03-01T12:47:58;13.95;;;10.23;;
76801;SDS011;66403;50.832;10.950;2023-03-01T12:53:01;14.00;;;10.00;;
76801;SDS011;66403;50.832;10.950;2023-03-01T13:08:36;12.57;;;10.00;;
76801;SDS011;66403;50.832;10.950;2023-03-01T13:19:20;13.48;;;9.82;;
76801;SDS011;66403;50.832;10.950;2023-03-01T13:24:28;13.00;;;8.80;;
76801;SDS011;66403;50.832;10.950;2023-03-01T13:29:43;15.10;;;9.75;;
76801;SDS011;66403;50.832;10.950;2023-03-01T13:34:46;10.88;;;9.25;;
76801;SDS011;66403;50.832;10.950;2023-03-01T13:39:48;12.88;;;9.55;;
76801;SDS011;66403;50.832;10.950;2023-03-01T13:44:50;15.43;;;9.70;;
76801;SDS011;66403;50.832;10.950;2023-03-01T13:49:52;12.10;;;9.27;;
76801;SDS011;66403;50.832;10.950;2023-03-01T13:54:57;13.05;;;9.02;;
76801;SDS011;66403;50.832;10.950;2023-03-01T13:59:58;12.77;;;9.13;;
76801;SDS011;66403;50.832;10.950;2023-03-01T14:04:59;14.02;;;8.82;;
76801;SDS011;66403;50.832;10.950;2023-03-01T14:10:02;12.27;;;9.32;;
76801;SDS011;66403;50.832;10.950;2023-03-01T14:25:21;12.93;;;9.70;;
76801;SDS011;66403;50.832;10.950;2023-03-01T14:30:26;13.63;;;9.23;;
76801;SDS011;66403;50.832;10.950;2023-03-01T14:35:33;13.07;;;9.60;;
76801;SDS011;66403;50.832;10.950;2023-03-01T14:40:35;12.68;;;9.50;;
76801;SDS011;66403;50.832;10.950;2023-03-01T14:45:36;9.00;;;7.30;;
76801;SDS011;66403;50.832;10.950;2023-03-01T14:50:40;12.33;;;8.27;;
76801;SDS011;66403;50.832;10.950;2023-03-01T14:55:42;11.45;;;8.13;;
76801;SDS011;66403;50.832;10.950;2023-03-01T15:00:48;9.75;;;7.63;;
76801;SDS011;66403;50.832;10.950;2023-03-01T15:05:50;11.68;;;8.05;;
76801;SDS011;66403;50.832;10.950;2023-03-01T15:21:27;11.20;;;7.55;;
76801;SDS011;66403;50.832;10.950;2023-03-01T15:26:35;12.48;;;8.55;;
76801;SDS011;66403;50.832;10.950;2023-03-01T15:31:38;11.32;;;7.53;;
76801;SDS011;66403;50.832;10.950;2023-03-01T15:36:40;11.98;;;8.35;;
76801;SDS011;66403;50.832;10.950;2023-03-01T15:41:48;11.07;;;7.45;;
76801;SDS011;66403;50.832;10.950;2023-03-01T15:46:48;13.52;;;8.40;;
76801;SDS011;66403;50.832;10.950;2023-03-01T15:51:49;11.48;;;7.93;;
76801;SDS011;66403;50.832;10.950;2023-03-01T15:56:49;17.75;;;9.40;;
76801;SDS011;66403;50.832;10.950;2023-03-01T16:01:50;18.10;;;9.88;;
76801;SDS011;66403;50.832;10.950;2023-03-01T16:06:51;14.25;;;8.30;;
76801;SDS011;66403;50.832;10.950;2023-03-01T16:11:55;15.13;;;9.18;;
76801;SDS011;66403;50.832;10.950;2023-03-01T16:16:56;14.95;;;9.25;;
76801;SDS011;66403;50.832;10.950;2023-03-01T16:21:56;13.75;;;8.43;;
76801;SDS011;66403;50.832;10.950;2023-03-01T16:26:56;16.38;;;8.93;;
76801;SDS011;66403;50.832;10.950;2023-03-01T16:31:59;17.48;;;9.95;;
76801;SDS011;66403;50.832;10.950;2023-03-01T16:37:01;22.45;;;11.55;;
76801;SDS011;66403;50.832;10.950;2023-03-01T16:42:01;13.93;;;8.80;;
76801;SDS011;66403;50.832;10.950;2023-03-01T16:47:01;13.48;;;7.72;;
76801;SDS011;66403;50.832;10.950;2023-03-01T16:52:02;20.63;;;10.20;;
76801;SDS011;66403;50.832;10.950;2023-03-01T16:57:02;14.00;;;8.13;;
76801;SDS011;66403;50.832;10.950;2023-03-01T17:02:03;16.00;;;7.82;;
76801;SDS011;66403;50.832;10.950;2023-03-01T17:07:05;23.02;;;11.48;;
76801;SDS011;66403;50.832;10.950;2023-03-01T17:12:06;19.80;;;8.88;;
76801;SDS011;66403;50.832;10.950;2023-03-01T17:17:07;12.52;;;8.63;;
76801;SDS011;66403;50.832;10.950;2023-03-01T17:22:09;14.35;;;8.02;;
76801;SDS011;66403;50.832;10.950;2023-03-01T17:27:10;12.98;;;7.60;;
76801;SDS011;66403;50.832;10.950;2023-03-01T17:32:12;14.60;;;7.05;;
76801;SDS011;66403;50.832;10.950;2023-03-01T17:37:12;23.00;;;8.45;;
76801;SDS011;66403;50.832;10.950;2023-03-01T17:42:13;19.75;;;7.82;;
76801;SDS011;66403;50.832;10.950;2023-03-01T17:47:13;14.30;;;8.43;;
76801;SDS011;66403;50.832;10.950;2023-03-01T17:52:14;15.93;;;8.05;;
76801;SDS011;66403;50.832;10.950;2023-03-01T17:57:14;17.27;;;7.93;;
76801;SDS011;66403;50.832;10.950;2023-03-01T18:02:15;14.10;;;7.40;;
76801;SDS011;66403;50.832;10.950;2023-03-01T18:07:15;17.35;;;8.20;;
76801;SDS011;66403;50.832;10.950;2023-03-01T18:12:16;17.48;;;9.15;;
76801;SDS011;66403;50.832;10.950;2023-03-01T18:17:16;23.00;;;10.60;;
76801;SDS011;66403;50.832;10.950;2023-03-01T18:22:17;24.13;;;14.00;;
76801;SDS011;66403;50.832;10.950;2023-03-01T18:27:17;24.83;;;13.52;;
76801;SDS011;66403;50.832;10.950;2023-03-01T18:32:18;23.52;;;10.38;;
76801;SDS011;66403;50.832;10.950;2023-03-01T18:37:18;18.75;;;9.90;;
76801;SDS011;66403;50.832;10.950;2023-03-01T18:42:19;16.98;;;10.30;;
76801;SDS011;66403;50.832;10.950;2023-03-01T18:47:19;15.52;;;9.15;;
76801;SDS011;66403;50.832;10.950;2023-03-01T18:52:20;17.08;;;8.35;;
76801;SDS011;66403;50.832;10.950;2023-03-01T18:57:20;17.25;;;8.68;;
76801;SDS011;66403;50.832;10.950;2023-03-01T19:02:21;12.82;;;8.18;;
76801;SDS011;66403;50.832;10.950;2023-03-01T19:07:21;20.55;;;8.85;;
76801;SDS011;66403;50.832;10.950;2023-03-01T19:12:22;15.95;;;9.68;;
76801;SDS011;66403;50.832;10.950;2023-03-01T19:17:23;15.20;;;7.93;;
76801;SDS011;66403;50.832;10.950;2023-03-01T19:22:29;20.80;;;8.57;;
76801;SDS011;66403;50.832;10.950;2023-03-01T19:27:30;16.98;;;7.57;;
76801;SDS011;66403;50.832;10.950;2023-03-01T19:32:31;16.30;;;8.68;;
76801;SDS011;66403;50.832;10.950;2023-03-01T19:37:32;15.77;;;8.27;;
76801;SDS011;66403;50.832;10.950;2023-03-01T19:42:34;16.73;;;8.00;;
76801;SDS011;66403;50.832;10.950;2023-03-01T19:47:34;15.18;;;9.23;;
76801;SDS011;66403;50.832;10.950;2023-03-01T19:52:34;21.48;;;9.63;;
76801;SDS011;66403;50.832;10.950;2023-03-01T19:57:35;18.65;;;9.15;;
76801;SDS011;66403;50.832;10.950;2023-03-01T20:02:35;16.83;;;7.57;;
76801;SDS011;66403;50.832;10.950;2023-03-01T20:07:36;16.58;;;8.73;;
76801;SDS011;66403;50.832;10.950;2023-03-01T20:12:36;18.60;;;8.60;;
76801;SDS011;66403;50.832;10.950;2023-03-01T20:17:37;15.45;;;8.02;;
76801;SDS011;66403;50.832;10.950;2023-03-01T20:22:38;11.73;;;6.55;;
76801;SDS011;66403;50.832;10.950;2023-03-01T20:27:38;16.83;;;8.88;;
76801;SDS011;66403;50.832;10.950;2023-03-01T20:32:39;21.13;;;7.50;;
76801;SDS011;66403;50.832;10.950;2023-03-01T20:37:39;19.15;;;8.88;;
76801;SDS011;66403;50.832;10.950;2023-03-01T20:42:39;16.35;;;8.48;;
76801;SDS011;66403;50.832;10.950;2023-03-01T20:47:40;20.40;;;8.93;;
76801;SDS011;66403;50.832;10.950;2023-03-01T20:52:40;17.05;;;9.73;;
76801;SDS011;66403;50.832;10.950;2023-03-01T20:57:41;16.83;;;9.90;;
76801;SDS011;66403;50.832;10.950;2023-03-01T21:02:42;18.63;;;10.65;;
76801;SDS011;66403;50.832;10.950;2023-03-01T21:07:43;23.55;;;11.63;;
76801;SDS011;66403;50.832;10.950;2023-03-01T21:12:45;19.48;;;9.68;;
76801;SDS011;66403;50.832;10.950;2023-03-01T21:17:45;16.10;;;9.20;;
76801;SDS011;66403;50.832;10.950;2023-03-01T21:22:47;13.57;;;7.43;;
76801;SDS011;66403;50.832;10.950;2023-03-01T21:27:47;17.30;;;8.60;;
76801;SDS011;66403;50.832;10.950;2023-03-01T21:32:48;13.82;;;6.78;;
76801;SDS011;66403;50.832;10.950;2023-03-01T21:37:48;20.77;;;9.90;;
76801;SDS011;66403;50.832;10.950;2023-03-01T21:42:48;23.23;;;9.73;;
76801;SDS011;66403;50.832;10.950;2023-03-01T21:47:49;19.15;;;9.05;;
76801;SDS011;66403;50.832;10.950;2023-03-01T21:52:49;23.92;;;9.95;;
76801;SDS011;66403;50.832;10.950;2023-03-01T21:57:50;17.02;;;8.23;;
76801;SDS011;66403;50.832;10.950;2023-03-01T22:02:50;22.58;;;8.35;;
76801;SDS011;66403;50.832;10.950;2023-03-01T22:07:55;16.27;;;8.27;;
76801;SDS011;66403;50.832;10.950;2023-03-01T22:12:56;17.13;;;8.63;;
76801;SDS011;66403;50.832;10.950;2023-03-01T22:17:57;15.13;;;8.63;;
76801;SDS011;66403;50.832;10.950;2023-03-01T22:22:57;15.30;;;9.07;;
76801;SDS011;66403;50.832;10.950;2023-03-01T22:27:58;15.80;;;8.98;;
76801;SDS011;66403;50.832;10.950;2023-03-01T22:32:58;17.42;;;8.82;;
76801;SDS011;66403;50.832;10.950;2023-03-01T22:37:58;14.40;;;8.15;;
76801;SDS011;66403;50.832;10.950;2023-03-01T22:42:59;17.42;;;9.55;;
76801;SDS011;66403;50.832;10.950;2023-03-01T22:48:00;17.00;;;8.95;;
76801;SDS011;66403;50.832;10.950;2023-03-01T22:53:01;21.33;;;8.50;;
76801;SDS011;66403;50.832;10.950;2023-03-01T22:58:01;15.27;;;7.90;;
76801;SDS011;66403;50.832;10.950;2023-03-01T23:03:02;16.75;;;8.25;;
76801;SDS011;66403;50.832;10.950;2023-03-01T23:08:02;16.75;;;8.48;;
76801;SDS011;66403;50.832;10.950;2023-03-01T23:13:03;19.58;;;8.38;;
76801;SDS011;66403;50.832;10.950;2023-03-01T23:18:03;13.65;;;8.35;;
76801;SDS011;66403;50.832;10.950;2023-03-01T23:23:04;13.98;;;8.02;;
76801;SDS011;66403;50.832;10.950;2023-03-01T23:28:04;13.90;;;8.98;;
76801;SDS011;66403;50.832;10.950;2023-03-01T23:33:04;16.98;;;8.52;;
76801;SDS011;66403;50.832;10.950;2023-03-01T23:38:05;18.42;;;8.68;;
76801;SDS011;66403;50.832;10.950;2023-03-01T23:43:05;14.25;;;8.02;;
76801;SDS011;66403;50.832;10.950;2023-03-01T23:48:06;19.70;;;9.05;;
76801;SDS011;66403;50.832;10.950;2023-03-01T23:53:07;14.65;;;8.02;;
76801;SDS011;66403;50.832;10.950;2023-03-01T23:58:09;16.25;;;7.57;;
